createdAt,value
2022-12-05T00:01:53.205Z,87.99
2022-12-05T00:05:54.663Z,87.62
2022-12-05T00:09:57.661Z,87.48
2022-12-05T00:14:00.623Z,87.19
2022-12-05T00:18:01.984Z,87.38
2022-12-05T00:22:03.463Z,87.53
2022-12-05T00:26:06.791Z,87.81
2022-12-05T00:30:08.849Z,87.25
2022-12-05T00:34:10.519Z,87.43
2022-12-05T00:38:11.957Z,87.69
2022-12-05T00:42:14.750Z,87.32
2022-12-05T00:46:18.062Z,87.10
2022-12-05T00:50:19.630Z,87.39
2022-12-05T00:54:21.097Z,87.11
2022-12-05T00:58:23.896Z,87.63
2022-12-05T01:02:25.295Z,87.83
2022-12-05T01:06:27.843Z,88.00
2022-12-05T01:10:29.241Z,87.79
2022-12-05T01:14:32.080Z,87.51
2022-12-05T01:18:33.543Z,87.76
2022-12-05T01:22:34.923Z,87.85
2022-12-05T01:26:36.884Z,87.69
2022-12-05T01:30:40.548Z,87.77
2022-12-05T01:34:41.950Z,87.55
2022-12-05T01:38:43.574Z,87.63
2022-12-05T01:42:44.978Z,87.61
2022-12-05T01:46:49.267Z,87.62
2022-12-05T01:50:51.065Z,87.32
2022-12-05T01:54:56.568Z,87.59
2022-12-05T01:58:59.424Z,87.64
2022-12-05T02:03:06.745Z,87.46
2022-12-05T02:07:08.126Z,87.92
2022-12-05T02:11:09.796Z,87.98
2022-12-05T02:15:36.058Z,87.87
2022-12-05T02:20:00.234Z,87.46
2022-12-05T02:24:50.192Z,87.37
2022-12-05T02:29:10.892Z,87.78
2022-12-05T02:33:21.067Z,87.79
2022-12-05T02:37:29.596Z,87.49
2022-12-05T02:41:34.544Z,87.60
2022-12-05T02:45:38.544Z,87.64
2022-12-05T02:49:42.835Z,87.60
2022-12-05T02:53:45.490Z,87.99
2022-12-05T02:57:52.428Z,88.06
2022-12-05T03:01:53.927Z,88.04
2022-12-05T03:06:02.870Z,87.37
2022-12-05T03:10:07.865Z,87.81
2022-12-05T03:14:16.500Z,87.54
2022-12-05T03:18:24.025Z,87.33
2022-12-05T03:22:32.219Z,87.37
2022-12-05T03:26:44.571Z,87.18
2022-12-05T03:30:51.971Z,87.16
2022-12-05T03:35:03.468Z,86.76
2022-12-05T03:39:13.076Z,87.50
2022-12-05T03:43:22.436Z,87.31
2022-12-05T03:47:33.101Z,87.25
2022-12-05T03:51:42.318Z,87.04
2022-12-05T03:55:48.907Z,87.42
2022-12-05T03:59:55.730Z,87.49
2022-12-05T04:04:03.040Z,87.27
2022-12-05T04:08:07.100Z,87.38
2022-12-05T04:12:14.992Z,87.18
2022-12-05T04:16:20.243Z,87.55
2022-12-05T04:20:27.369Z,87.48
2022-12-05T04:24:31.675Z,88.11
2022-12-05T04:28:39.175Z,87.73
2022-12-05T04:32:45.993Z,87.85
2022-12-05T04:36:54.501Z,87.54
2022-12-05T04:41:00.379Z,88.22
2022-12-05T04:45:08.041Z,87.58
2022-12-05T04:49:13.878Z,87.83
2022-12-05T04:53:19.106Z,88.00
2022-12-05T04:57:25.392Z,88.06
2022-12-05T05:01:34.964Z,88.37
2022-12-05T05:05:38.252Z,88.22
2022-12-05T05:09:40.422Z,88.71
2022-12-05T05:13:44.084Z,89.13
2022-12-05T05:17:46.773Z,88.76
2022-12-05T05:21:48.158Z,89.24
2022-12-05T05:25:52.847Z,88.95
2022-12-05T05:29:54.192Z,89.08
2022-12-05T05:33:57.473Z,88.78
2022-12-05T05:37:58.823Z,88.66
2022-12-05T05:42:00.212Z,88.20
2022-12-05T05:46:03.378Z,88.50
2022-12-05T05:50:08.060Z,88.37
2022-12-05T05:54:09.798Z,88.32
2022-12-05T05:58:11.106Z,88.41
2022-12-05T06:02:12.445Z,88.48
2022-12-05T06:06:15.420Z,88.76
2022-12-05T06:10:16.764Z,88.89
2022-12-05T06:14:18.126Z,88.60
2022-12-05T06:18:19.456Z,88.41
2022-12-05T06:22:22.143Z,87.86
2022-12-05T06:26:23.553Z,88.02
2022-12-05T06:30:24.914Z,88.07
2022-12-05T06:34:26.242Z,88.11
2022-12-05T06:38:28.915Z,88.29
2022-12-05T06:42:31.305Z,88.72
2022-12-05T06:46:32.632Z,88.95
2022-12-05T06:50:33.956Z,88.25
2022-12-05T06:54:36.708Z,88.41
2022-12-05T06:58:38.368Z,88.35
2022-12-05T07:02:39.735Z,88.47
2022-12-05T07:06:46.117Z,88.15
2022-12-05T07:10:52.441Z,88.24
2022-12-05T07:14:53.784Z,88.21
2022-12-05T07:18:55.456Z,88.37
2022-12-05T07:22:56.748Z,88.22
2022-12-05T07:26:59.422Z,88.72
2022-12-05T07:31:01.449Z,88.12
2022-12-05T07:35:02.977Z,87.93
2022-12-05T07:39:04.653Z,88.57
2022-12-05T07:43:07.385Z,89.02
2022-12-05T07:47:08.733Z,88.18
2022-12-05T07:51:10.624Z,88.02
2022-12-05T07:55:11.936Z,88.33
2022-12-05T07:59:22.656Z,88.17
2022-12-05T08:03:24.251Z,88.04
2022-12-05T08:07:25.638Z,88.26
2022-12-05T08:11:29.865Z,88.62
2022-12-05T08:15:34.437Z,88.18
2022-12-05T08:19:36.082Z,88.35
2022-12-05T08:23:38.974Z,88.44
2022-12-05T08:27:40.395Z,88.42
2022-12-05T08:31:45.433Z,88.20
2022-12-05T08:35:46.786Z,88.48
2022-12-05T08:39:48.178Z,87.81
2022-12-05T08:43:49.504Z,87.92
2022-12-05T08:47:52.196Z,88.03
2022-12-05T08:51:53.620Z,88.44
2022-12-05T08:55:55.990Z,88.42
2022-12-05T08:59:57.358Z,88.54
2022-12-05T09:04:00.943Z,88.30
2022-12-05T09:08:02.342Z,87.90
2022-12-05T09:12:04.133Z,88.40
2022-12-05T09:16:07.091Z,88.55
2022-12-05T09:20:10.948Z,88.44
2022-12-05T09:24:13.900Z,88.22
2022-12-05T09:28:15.215Z,88.06
2022-12-05T09:32:16.526Z,87.66
2022-12-05T09:36:20.884Z,87.11
2022-12-05T09:40:22.407Z,87.25
2022-12-05T09:44:38.956Z,86.48
2022-12-05T09:48:40.642Z,86.71
2022-12-05T09:52:52.993Z,86.58
2022-12-05T09:56:54.846Z,87.06
2022-12-05T10:01:02.907Z,86.06
2022-12-05T10:05:10.914Z,86.56
2022-12-05T10:09:30.566Z,87.02
2022-12-05T10:13:45.164Z,86.75
2022-12-05T10:17:50.101Z,85.57
2022-12-05T10:21:55.923Z,85.39
2022-12-05T10:26:04.252Z,85.52
2022-12-05T10:30:14.304Z,86.42
2022-12-05T10:34:24.975Z,85.40
2022-12-05T10:38:29.756Z,85.58
2022-12-05T10:42:35.765Z,85.88
2022-12-05T10:46:37.243Z,85.29
2022-12-05T10:50:39.956Z,85.54
2022-12-05T10:54:46.972Z,86.63
2022-12-05T10:58:57.721Z,86.62
2022-12-05T11:03:03.598Z,86.56
2022-12-05T11:07:05.623Z,87.00
2022-12-05T11:11:17.875Z,86.79
2022-12-05T11:15:23.809Z,86.97
2022-12-05T11:19:27.614Z,86.67
2022-12-05T11:23:29.991Z,86.60
2022-12-05T11:27:32.189Z,86.92
2022-12-05T11:31:34.992Z,86.88
2022-12-05T11:35:37.705Z,87.37
2022-12-05T11:39:39.536Z,87.23
2022-12-05T11:44:05.292Z,87.71
2022-12-05T11:48:31.142Z,87.88
2022-12-05T11:52:43.511Z,87.74
2022-12-05T11:56:51.878Z,87.58
2022-12-05T12:01:04.752Z,87.43
2022-12-05T12:05:17.820Z,87.01
2022-12-05T12:09:31.911Z,87.41
2022-12-05T12:13:51.490Z,87.20
2022-12-05T12:18:01.691Z,87.55
2022-12-05T12:22:24.491Z,87.61
2022-12-05T12:26:36.737Z,88.06
2022-12-05T12:30:58.262Z,87.51
2022-12-05T12:35:17.342Z,87.51
2022-12-05T12:39:38.454Z,87.67
2022-12-05T12:43:55.103Z,87.78
2022-12-05T12:48:09.417Z,87.01
2022-12-05T12:52:14.610Z,86.89
2022-12-05T12:56:28.779Z,87.74
2022-12-05T13:00:42.793Z,86.73
2022-12-05T13:09:27.066Z,86.41
2022-12-05T13:13:34.183Z,86.49
2022-12-05T13:17:38.121Z,86.79
2022-12-05T13:21:39.632Z,86.41
2022-12-05T13:25:43.816Z,86.62
2022-12-05T13:29:52.447Z,87.22
2022-12-05T13:33:53.787Z,87.04
2022-12-05T13:37:55.263Z,87.19
2022-12-05T13:41:57.628Z,87.47
2022-12-05T13:46:06.645Z,86.61
2022-12-05T13:50:13.972Z,86.16
2022-12-05T13:54:19.796Z,87.43
2022-12-05T13:58:41.919Z,87.59
2022-12-05T14:02:50.127Z,87.10
2022-12-05T14:06:58.341Z,86.93
2022-12-05T14:11:11.257Z,86.92
2022-12-05T14:15:39.769Z,87.25
2022-12-05T14:20:07.124Z,87.08
2022-12-05T14:24:19.158Z,87.21
2022-12-05T14:28:41.513Z,87.71
2022-12-05T14:32:43.423Z,87.00
2022-12-05T14:36:55.308Z,87.25
2022-12-05T14:41:10.988Z,87.85
2022-12-05T14:45:26.788Z,87.90
2022-12-05T14:49:49.132Z,88.46
2022-12-05T14:53:52.013Z,88.12
2022-12-05T14:57:53.616Z,88.29
2022-12-05T15:01:56.735Z,88.62
2022-12-05T15:06:03.840Z,88.08
2022-12-05T15:10:13.832Z,88.37
2022-12-05T15:14:19.508Z,88.34
2022-12-05T15:18:28.270Z,88.38
2022-12-05T15:22:34.282Z,88.46
2022-12-05T15:26:48.228Z,88.64
2022-12-05T15:30:55.930Z,88.32
2022-12-05T15:35:01.649Z,88.06
2022-12-05T15:39:16.756Z,88.61
2022-12-05T15:43:30.866Z,88.64
2022-12-05T15:47:32.205Z,88.98
2022-12-05T15:51:37.646Z,88.75
2022-12-05T15:55:43.328Z,88.43
2022-12-05T15:59:50.376Z,88.52
2022-12-05T16:03:56.132Z,88.43
2022-12-05T16:07:57.716Z,88.48
2022-12-05T16:12:01.728Z,88.62
2022-12-05T16:16:05.888Z,88.10
2022-12-05T16:20:12.152Z,87.79
2022-12-05T16:24:18.537Z,88.43
2022-12-05T16:28:21.376Z,87.97
2022-12-05T16:32:25.338Z,88.18
2022-12-05T16:36:26.686Z,88.51
2022-12-05T16:40:28.072Z,88.38
2022-12-05T16:45:00.897Z,88.86
2022-12-05T16:49:24.394Z,88.45
2022-12-05T16:53:31.625Z,88.56
2022-12-05T16:57:33.018Z,88.64
2022-12-05T17:01:38.928Z,88.71
2022-12-05T17:05:42.072Z,88.76
2022-12-05T17:09:43.507Z,89.18
2022-12-05T17:13:45.537Z,88.95
2022-12-05T17:17:46.911Z,89.19
2022-12-05T17:21:49.660Z,89.08
2022-12-05T17:25:53.006Z,88.67
2022-12-05T17:29:54.378Z,89.05
2022-12-05T17:33:55.709Z,88.85
2022-12-05T17:37:58.479Z,88.96
2022-12-05T17:41:59.826Z,88.60
2022-12-05T17:46:02.304Z,89.13
2022-12-05T17:50:04.229Z,88.81
2022-12-05T17:54:06.978Z,88.51
2022-12-05T17:58:08.423Z,88.62
2022-12-05T18:02:10.630Z,89.05
2022-12-05T18:06:12.052Z,88.62
2022-12-05T18:10:17.217Z,88.53
2022-12-05T18:14:18.674Z,89.06
2022-12-05T18:18:20.085Z,89.02
2022-12-05T18:22:21.915Z,88.71
2022-12-05T18:26:24.645Z,89.33
2022-12-05T18:30:26.067Z,89.06
2022-12-05T18:34:27.416Z,89.06
2022-12-05T18:38:28.741Z,89.21
2022-12-05T18:42:31.472Z,89.06
2022-12-05T18:46:33.050Z,89.16
2022-12-05T18:50:34.427Z,89.04
2022-12-05T18:54:35.807Z,89.22
2022-12-05T18:58:38.558Z,88.88
2022-12-05T19:02:42.745Z,88.94
2022-12-05T19:06:47.975Z,88.95
2022-12-05T19:10:49.380Z,89.41
2022-12-05T19:14:52.129Z,89.49
2022-12-05T19:18:55.325Z,89.12
2022-12-05T19:23:00.917Z,89.57
2022-12-05T19:27:02.608Z,89.85
2022-12-05T19:31:07.908Z,90.02
2022-12-05T19:35:09.248Z,89.90
2022-12-05T19:39:14.121Z,89.53
2022-12-05T19:43:15.571Z,89.96
2022-12-05T19:47:18.268Z,89.73
2022-12-05T19:51:20.255Z,89.96
2022-12-05T19:55:21.725Z,89.57
2022-12-05T19:59:23.069Z,89.90
2022-12-05T20:03:25.784Z,89.71
2022-12-05T20:07:27.202Z,89.73
2022-12-05T20:11:29.027Z,89.66
2022-12-05T20:15:30.452Z,89.32
2022-12-05T20:19:33.312Z,89.73
2022-12-05T20:23:34.913Z,89.23
2022-12-05T20:27:36.239Z,89.41
2022-12-05T20:31:39.871Z,89.55
2022-12-05T20:35:42.563Z,89.13
2022-12-05T20:39:43.910Z,89.38
2022-12-05T20:43:47.041Z,89.22
2022-12-05T20:47:48.474Z,89.25
2022-12-05T20:51:51.269Z,89.36
2022-12-05T20:55:54.680Z,89.84
2022-12-05T20:59:56.128Z,89.48
2022-12-05T21:03:57.639Z,89.52
2022-12-05T21:08:00.510Z,89.59
2022-12-05T21:12:02.418Z,89.61
2022-12-05T21:16:05.331Z,89.99
2022-12-05T21:20:07.992Z,90.02
2022-12-05T21:24:10.808Z,89.99
2022-12-05T21:28:12.349Z,89.73
2022-12-05T21:32:13.978Z,89.87
2022-12-05T21:36:15.963Z,90.13
2022-12-05T21:40:18.682Z,90.13
2022-12-05T21:44:20.156Z,90.57
2022-12-05T21:48:23.456Z,90.22
2022-12-05T21:52:24.812Z,90.36
2022-12-05T21:56:27.800Z,90.71
2022-12-05T22:00:29.254Z,90.44
2022-12-05T22:04:30.693Z,90.79
2022-12-05T22:08:33.078Z,90.75
2022-12-05T22:12:36.102Z,90.91
2022-12-05T22:16:37.512Z,91.11
2022-12-05T22:20:38.937Z,91.15
2022-12-05T22:24:40.357Z,91.04
2022-12-05T22:28:43.782Z,91.03
2022-12-05T22:32:45.139Z,91.47
2022-12-05T22:36:47.965Z,91.86
2022-12-05T22:40:53.418Z,91.47
2022-12-05T22:44:56.206Z,91.90
2022-12-05T22:48:57.666Z,91.56
2022-12-05T22:52:59.131Z,91.69
2022-12-05T22:57:00.595Z,91.87
2022-12-05T23:01:11.486Z,91.94
2022-12-05T23:05:13.045Z,91.78
2022-12-05T23:09:14.525Z,91.63
2022-12-05T23:13:16.105Z,91.80
2022-12-05T23:17:18.861Z,91.35
2022-12-05T23:21:22.505Z,91.42
2022-12-05T23:25:24.062Z,91.12
2022-12-05T23:29:25.430Z,91.58
2022-12-05T23:33:28.324Z,91.87
2022-12-05T23:37:29.865Z,91.76
2022-12-05T23:41:31.535Z,91.59
2022-12-05T23:45:32.932Z,91.38
2022-12-05T23:49:35.904Z,91.65
2022-12-05T23:53:39.934Z,91.62
2022-12-05T23:57:41.369Z,91.88
